createdAt,value
2023-01-22T00:02:02.588Z,102201.16
2023-01-22T00:04:29.309Z,102204.59
2023-01-22T00:06:55.925Z,102206.19
2023-01-22T00:09:22.516Z,102200.03
2023-01-22T00:11:50.875Z,102198.25
2023-01-22T00:14:17.559Z,102181.13
2023-01-22T00:16:44.556Z,102194.88
2023-01-22T00:19:11.350Z,102188.78
2023-01-22T00:21:37.996Z,102178.38
2023-01-22T00:24:04.828Z,102180.72
2023-01-22T00:26:31.504Z,102198.75
2023-01-22T00:28:59.387Z,102179.66
2023-01-22T00:31:26.108Z,102179.47
2023-01-22T00:33:52.853Z,102183.75
2023-01-22T00:36:21.160Z,102124.75
2023-01-22T00:38:48.513Z,102176.75
2023-01-22T00:41:16.469Z,102176.81
2023-01-22T00:43:43.148Z,102141.53
2023-01-22T00:46:13.632Z,102142.56
2023-01-22T00:48:40.631Z,102176.84
2023-01-22T00:51:07.765Z,102072.25
2023-01-22T00:53:34.348Z,102161.38
2023-01-22T00:56:02.216Z,102123.53
2023-01-22T00:58:29.835Z,102171.66
2023-01-22T01:00:56.667Z,102039.97
2023-01-22T01:03:24.730Z,102154.47
2023-01-22T01:05:51.512Z,102160.38
2023-01-22T01:08:18.095Z,102158.72
2023-01-22T01:10:45.309Z,102134.78
2023-01-22T01:13:12.080Z,102161.38
2023-01-22T01:15:38.935Z,102162.38
2023-01-22T01:18:05.672Z,102171.84
2023-01-22T01:20:33.607Z,102161.41
2023-01-22T01:23:00.171Z,102164.06
2023-01-22T01:25:26.747Z,102159.72
2023-01-22T01:27:53.286Z,102165.81
2023-01-22T01:30:20.338Z,102157.00
2023-01-22T01:32:47.010Z,102153.75
2023-01-22T01:35:13.805Z,102135.69
2023-01-22T01:37:41.893Z,102151.97
2023-01-22T01:40:09.643Z,102156.34
2023-01-22T01:42:39.503Z,102158.03
2023-01-22T01:45:24.713Z,102153.88
2023-01-22T01:47:56.365Z,102159.94
2023-01-22T01:50:26.334Z,102158.28
2023-01-22T01:52:56.168Z,102152.38
2023-01-22T01:55:28.298Z,102144.66
2023-01-22T01:57:57.938Z,102151.38
2023-01-22T02:00:29.687Z,102151.44
2023-01-22T02:02:56.929Z,102130.03
2023-01-22T02:05:25.724Z,102146.94
2023-01-22T02:07:53.821Z,102106.88
2023-01-22T02:10:20.759Z,102147.94
2023-01-22T02:12:47.535Z,102145.22
2023-01-22T02:15:14.626Z,102095.75
2023-01-22T02:17:41.247Z,102150.66
2023-01-22T02:20:09.010Z,102047.84
2023-01-22T02:22:39.106Z,102141.19
2023-01-22T02:25:06.559Z,102124.84
2023-01-22T02:27:33.243Z,102147.97
2023-01-22T02:30:00.053Z,102147.19
2023-01-22T02:32:28.287Z,102146.22
2023-01-22T02:34:55.181Z,102141.03
2023-01-22T02:37:22.039Z,102124.13
2023-01-22T02:39:50.013Z,102149.91
2023-01-22T02:42:17.284Z,102143.88
2023-01-22T02:44:44.051Z,102140.31
2023-01-22T02:47:12.214Z,102135.19
2023-01-22T02:49:38.765Z,102136.81
2023-01-22T02:52:05.860Z,102117.19
2023-01-22T02:54:32.494Z,102135.31
2023-01-22T02:57:00.412Z,102120.66
2023-01-22T02:59:27.040Z,102132.50
2023-01-22T03:01:53.660Z,102142.75
2023-01-22T03:04:20.402Z,102144.50
2023-01-22T03:06:47.219Z,102142.72
2023-01-22T03:09:16.173Z,102136.78
2023-01-22T03:11:44.761Z,102134.13
2023-01-22T03:14:18.215Z,102132.38
2023-01-22T03:16:44.963Z,102133.06
2023-01-22T03:19:12.906Z,102137.44
2023-01-22T03:21:41.964Z,102121.84
2023-01-22T03:24:08.628Z,102122.81
2023-01-22T03:26:36.231Z,102115.03
2023-01-22T03:29:03.172Z,102096.16
2023-01-22T03:31:31.515Z,102114.19
2023-01-22T03:33:58.136Z,102113.31
2023-01-22T03:36:25.212Z,102107.41
2023-01-22T03:38:56.701Z,102102.28
2023-01-22T03:41:25.021Z,102114.19
2023-01-22T03:43:51.905Z,102119.41
2023-01-22T03:46:21.519Z,102072.41
2023-01-22T03:48:54.204Z,102121.06
2023-01-22T03:51:21.424Z,102124.44
2023-01-22T03:53:48.280Z,102120.16
2023-01-22T03:56:16.708Z,102085.97
2023-01-22T03:58:43.800Z,102122.81
2023-01-22T04:01:12.984Z,102115.03
2023-01-22T04:03:39.922Z,102112.09
2023-01-22T04:06:10.553Z,102111.44
2023-01-22T04:08:39.140Z,102123.56
2023-01-22T04:11:06.536Z,102115.69
2023-01-22T04:13:35.657Z,102050.91
2023-01-22T04:16:02.881Z,102124.31
2023-01-22T04:18:47.988Z,102117.34
2023-01-22T04:21:34.428Z,102119.09
2023-01-22T04:24:02.841Z,102117.41
2023-01-22T04:26:29.407Z,102117.41
2023-01-22T04:28:57.866Z,102126.94
2023-01-22T04:31:25.040Z,102075.63
2023-01-22T04:34:12.013Z,102098.44
2023-01-22T04:36:47.198Z,102123.28
2023-01-22T04:39:14.052Z,102122.44
2023-01-22T04:41:40.669Z,102125.06
2023-01-22T04:44:07.270Z,101997.03
2023-01-22T04:46:34.364Z,102122.47
2023-01-22T04:49:01.008Z,102125.06
2023-01-22T04:51:29.784Z,102129.47
2023-01-22T04:53:57.772Z,102102.19
2023-01-22T04:56:24.833Z,102125.13
2023-01-22T04:58:51.454Z,102092.63
2023-01-22T05:01:18.162Z,102116.63
2023-01-22T05:03:45.669Z,102106.19
2023-01-22T05:06:12.384Z,102113.75
2023-01-22T05:08:39.301Z,102117.09
2023-01-22T05:11:07.473Z,102124.03
2023-01-22T05:13:41.606Z,102071.88
2023-01-22T05:16:08.601Z,102119.66
2023-01-22T05:18:35.615Z,102099.78
2023-01-22T05:21:02.808Z,102117.94
2023-01-22T05:23:31.073Z,102112.09
2023-01-22T05:25:58.067Z,102012.91
2023-01-22T05:28:38.928Z,102119.66
2023-01-22T05:31:17.141Z,102118.84
2023-01-22T05:33:58.695Z,102129.91
2023-01-22T05:36:25.705Z,102125.72
2023-01-22T05:38:55.542Z,102136.91
2023-01-22T05:41:22.327Z,102099.28
2023-01-22T05:43:52.292Z,102133.66
2023-01-22T05:46:23.664Z,102132.75
2023-01-22T05:49:04.872Z,102134.41
2023-01-22T05:51:33.920Z,102133.56
2023-01-22T05:54:00.986Z,102128.34
2023-01-22T05:56:30.823Z,102121.53
2023-01-22T05:58:59.879Z,102078.91
2023-01-22T06:01:26.878Z,102130.06
2023-01-22T06:03:57.838Z,102134.41
2023-01-22T06:06:25.778Z,102126.44
2023-01-22T06:08:52.698Z,102131.72
2023-01-22T06:11:21.270Z,102129.13
2023-01-22T06:13:48.472Z,102126.59
2023-01-22T06:16:20.739Z,102130.94
2023-01-22T06:19:06.202Z,102128.41
2023-01-22T06:21:39.376Z,102128.34
2023-01-22T06:24:06.810Z,102111.22
2023-01-22T06:26:33.527Z,102124.94
2023-01-22T06:29:01.025Z,102096.69
2023-01-22T06:31:29.885Z,102131.63
2023-01-22T06:33:56.949Z,102121.28
2023-01-22T06:36:23.539Z,102125.59
2023-01-22T06:38:50.164Z,102118.78
2023-01-22T06:41:27.133Z,102120.44
2023-01-22T06:43:58.475Z,102119.34
2023-01-22T06:46:25.397Z,102131.59
2023-01-22T06:49:03.455Z,102139.34
2023-01-22T06:51:30.563Z,102130.72
2023-01-22T06:53:57.643Z,102136.78
2023-01-22T06:56:24.411Z,102146.31
2023-01-22T06:58:51.696Z,102125.19
2023-01-22T07:01:18.334Z,102147.25
2023-01-22T07:03:44.892Z,102158.41
2023-01-22T07:06:12.901Z,102148.13
2023-01-22T07:08:39.460Z,102160.97
2023-01-22T07:11:07.883Z,102156.69
2023-01-22T07:13:34.617Z,102164.47
2023-01-22T07:16:02.039Z,102169.69
2023-01-22T07:18:28.919Z,102167.09
2023-01-22T07:20:55.708Z,102183.50
2023-01-22T07:23:23.732Z,102163.81
2023-01-22T07:25:50.368Z,102184.41
2023-01-22T07:28:16.900Z,102174.28
2023-01-22T07:30:44.343Z,102193.88
2023-01-22T07:33:11.428Z,102170.66
2023-01-22T07:35:38.251Z,102192.16
2023-01-22T07:38:05.379Z,102184.63
2023-01-22T07:40:33.716Z,102192.22
2023-01-22T07:43:00.484Z,102159.56
2023-01-22T07:45:27.304Z,102085.13
2023-01-22T07:47:56.065Z,102132.25
2023-01-22T07:50:23.763Z,102007.50
2023-01-22T07:52:50.635Z,102190.31
2023-01-22T07:55:17.495Z,102148.47
2023-01-22T07:57:46.358Z,102117.69
2023-01-22T08:00:14.735Z,102194.63
2023-01-22T08:02:42.005Z,102063.84
2023-01-22T08:05:10.956Z,102209.28
2023-01-22T08:07:37.568Z,102195.50
2023-01-22T08:10:06.998Z,102146.78
2023-01-22T08:12:33.691Z,102208.44
2023-01-22T08:15:01.619Z,102184.41
2023-01-22T08:17:28.165Z,102219.47
2023-01-22T08:19:55.141Z,102215.06
2023-01-22T08:22:21.863Z,102221.09
2023-01-22T08:24:48.390Z,102219.16
2023-01-22T08:27:14.942Z,102189.16
2023-01-22T08:29:41.442Z,102224.13
2023-01-22T08:32:11.360Z,102161.72
2023-01-22T08:34:37.933Z,102203.63
2023-01-22T08:37:04.466Z,102232.56
2023-01-22T08:39:31.779Z,102238.63
2023-01-22T08:41:58.571Z,102176.16
2023-01-22T08:44:25.501Z,102138.38
2023-01-22T08:46:52.548Z,102216.97
2023-01-22T08:49:20.655Z,102232.31
2023-01-22T08:51:47.272Z,102199.63
2023-01-22T08:54:13.895Z,102226.91
2023-01-22T08:56:40.509Z,102182.41
2023-01-22T08:59:07.273Z,102238.00
2023-01-22T09:01:34.039Z,102158.38
2023-01-22T09:04:00.817Z,102153.97
2023-01-22T09:06:28.762Z,102230.06
2023-01-22T09:08:55.392Z,102197.44
2023-01-22T09:11:21.967Z,102235.13
2023-01-22T09:13:48.501Z,102227.97
2023-01-22T09:16:15.092Z,102230.47
2023-01-22T09:18:41.674Z,102230.47
2023-01-22T09:21:08.284Z,102232.19
2023-01-22T09:23:36.274Z,102202.31
2023-01-22T09:26:02.862Z,102217.00
2023-01-22T09:28:29.388Z,102217.91
2023-01-22T09:30:56.217Z,102246.19
2023-01-22T09:33:22.754Z,102116.09
2023-01-22T09:35:49.420Z,102241.72
2023-01-22T09:38:16.056Z,102227.88
2023-01-22T09:40:48.326Z,102240.72
2023-01-22T09:43:25.397Z,102232.06
2023-01-22T09:45:55.191Z,102191.78
2023-01-22T09:48:23.146Z,102247.38
2023-01-22T09:50:51.551Z,102232.88
2023-01-22T09:53:21.175Z,102243.97
2023-01-22T09:55:52.802Z,102245.56
2023-01-22T09:58:24.942Z,102225.31
2023-01-22T10:00:54.961Z,102250.88
2023-01-22T10:03:25.705Z,102226.06
2023-01-22T10:05:56.198Z,102250.72
2023-01-22T10:08:26.010Z,102250.81
2023-01-22T10:10:54.180Z,102255.09
2023-01-22T10:13:22.059Z,102255.84
2023-01-22T10:15:49.982Z,102256.59
2023-01-22T10:18:26.693Z,102255.66
2023-01-22T10:20:53.769Z,102247.03
2023-01-22T10:23:22.579Z,102255.50
2023-01-22T10:25:49.772Z,102254.56
2023-01-22T10:28:24.264Z,102255.38
2023-01-22T10:30:50.966Z,102183.59
2023-01-22T10:33:22.567Z,102232.94
2023-01-22T10:35:50.779Z,102245.69
2023-01-22T10:38:24.475Z,102247.41
2023-01-22T10:40:59.593Z,102243.75
2023-01-22T10:43:36.210Z,102246.19
2023-01-22T10:46:05.787Z,102206.06
2023-01-22T10:48:33.243Z,102229.72
2023-01-22T10:51:07.927Z,102241.47
2023-01-22T10:53:37.388Z,102193.69
2023-01-22T10:56:08.042Z,102240.56
2023-01-22T10:58:39.706Z,102214.56
2023-01-22T11:01:28.348Z,102231.41
2023-01-22T11:03:55.212Z,102207.44
2023-01-22T11:06:26.417Z,102232.13
2023-01-22T11:09:01.966Z,102209.97
2023-01-22T11:11:33.147Z,102191.81
2023-01-22T11:14:04.972Z,102225.63
2023-01-22T11:16:35.955Z,102226.28
2023-01-22T11:19:06.535Z,102205.72
2023-01-22T11:21:35.444Z,102202.28
2023-01-22T11:24:09.203Z,102229.63
2023-01-22T11:27:07.558Z,102227.88
2023-01-22T11:30:02.678Z,102199.38
2023-01-22T11:32:45.644Z,102220.75
2023-01-22T11:35:21.915Z,102221.56
2023-01-22T11:38:00.183Z,102230.22
2023-01-22T11:40:29.219Z,102207.31
2023-01-22T11:43:14.303Z,102234.47
2023-01-22T11:45:56.418Z,102197.00
2023-01-22T11:48:27.609Z,102230.72
2023-01-22T11:51:06.410Z,102228.78
2023-01-22T11:53:49.829Z,102229.63
2023-01-22T11:56:29.139Z,102220.88
2023-01-22T11:59:02.717Z,102213.13
2023-01-22T12:01:45.282Z,102219.13
2023-01-22T12:04:37.614Z,102211.19
2023-01-22T12:07:15.579Z,102205.19
2023-01-22T12:09:50.430Z,102210.44
2023-01-22T12:12:29.681Z,102206.00
2023-01-22T12:15:10.426Z,102207.91
2023-01-22T12:17:56.285Z,102211.22
2023-01-22T12:20:38.487Z,102219.00
2023-01-22T12:23:09.434Z,102219.03
2023-01-22T12:25:42.768Z,102221.66
2023-01-22T12:28:16.423Z,102232.94
2023-01-22T12:30:53.823Z,102214.28
2023-01-22T12:33:25.646Z,102204.88
2023-01-22T12:35:55.040Z,102233.09
2023-01-22T12:38:32.479Z,102227.06
2023-01-22T12:41:09.257Z,102231.25
2023-01-22T12:43:42.897Z,102243.34
2023-01-22T12:46:17.505Z,102205.56
2023-01-22T12:49:03.967Z,102227.53
2023-01-22T12:51:37.573Z,102224.00
2023-01-22T12:54:19.281Z,102222.13
2023-01-22T12:56:46.712Z,102223.06
2023-01-22T12:59:40.981Z,102209.53
2023-01-22T13:02:22.994Z,102224.03
2023-01-22T13:04:51.028Z,102224.06
2023-01-22T13:07:22.016Z,102214.69
2023-01-22T13:09:59.684Z,102231.78
2023-01-22T13:12:28.140Z,102231.59
2023-01-22T13:14:54.924Z,102225.78
2023-01-22T13:17:25.681Z,102223.84
2023-01-22T13:19:54.531Z,102231.47
2023-01-22T13:22:24.067Z,102228.94
2023-01-22T13:24:52.512Z,102224.63
2023-01-22T13:27:24.863Z,102223.47
2023-01-22T13:29:51.473Z,102220.19
2023-01-22T13:32:20.606Z,102222.78
2023-01-22T13:34:47.553Z,102226.38
2023-01-22T13:37:22.284Z,102223.81
2023-01-22T13:39:49.213Z,102230.88
2023-01-22T13:42:16.295Z,102207.78
2023-01-22T13:44:46.843Z,102176.91
2023-01-22T13:47:26.273Z,102228.94
2023-01-22T13:49:53.311Z,102236.78
2023-01-22T13:52:22.036Z,102233.81
2023-01-22T13:54:57.297Z,102238.47
2023-01-22T13:57:23.934Z,102243.78
2023-01-22T13:59:55.119Z,102242.22
2023-01-22T14:02:23.650Z,102243.00
2023-01-22T14:04:50.481Z,102242.13
2023-01-22T14:07:26.003Z,102213.13
2023-01-22T14:09:55.130Z,102252.47
2023-01-22T14:12:23.400Z,102231.31
2023-01-22T14:14:50.176Z,102180.09
2023-01-22T14:17:21.347Z,102223.56
2023-01-22T14:19:48.045Z,102256.03
2023-01-22T14:22:14.822Z,102258.66
2023-01-22T14:24:42.795Z,102259.59
2023-01-22T14:27:09.595Z,102260.50
2023-01-22T14:29:36.220Z,102264.06
2023-01-22T14:32:03.298Z,102268.44
2023-01-22T14:34:29.975Z,102261.47
2023-01-22T14:36:56.515Z,102267.84
2023-01-22T14:39:23.140Z,102279.69
2023-01-22T14:41:51.062Z,102275.47
2023-01-22T14:44:17.934Z,102262.09
2023-01-22T14:46:44.654Z,102286.16
2023-01-22T14:49:11.223Z,102288.03
2023-01-22T14:51:37.758Z,102296.78
2023-01-22T14:54:04.580Z,102295.94
2023-01-22T14:56:31.205Z,102294.28
2023-01-22T14:58:59.169Z,102295.22
2023-01-22T15:01:25.848Z,102303.03
2023-01-22T15:03:52.479Z,102302.22
2023-01-22T15:06:19.083Z,102303.94
2023-01-22T15:08:45.995Z,102277.53
2023-01-22T15:11:12.523Z,102300.75
2023-01-22T15:13:39.347Z,102314.47
2023-01-22T15:16:09.539Z,102315.44
2023-01-22T15:18:36.996Z,102310.41
2023-01-22T15:21:04.562Z,102314.81
2023-01-22T15:23:31.307Z,102309.81
2023-01-22T15:25:59.043Z,102281.53
2023-01-22T15:28:25.974Z,102320.19
2023-01-22T15:30:52.578Z,102327.16
2023-01-22T15:33:20.744Z,102249.34
2023-01-22T15:35:47.424Z,102332.53
2023-01-22T15:38:14.063Z,102323.88
2023-01-22T15:40:43.985Z,102326.53
2023-01-22T15:43:12.060Z,102327.50
2023-01-22T15:45:38.845Z,102330.19
2023-01-22T15:48:06.250Z,102333.66
2023-01-22T15:50:34.845Z,102330.34
2023-01-22T15:53:01.695Z,102324.41
2023-01-22T15:55:28.939Z,102331.22
2023-01-22T15:57:55.884Z,102336.50
2023-01-22T16:00:23.026Z,102338.28
2023-01-22T16:02:49.780Z,102338.38
2023-01-22T16:05:21.251Z,102322.09
2023-01-22T16:07:52.336Z,102318.78
2023-01-22T16:10:19.611Z,102342.81
2023-01-22T16:12:47.947Z,102319.75
2023-01-22T16:15:16.265Z,102343.84
2023-01-22T16:17:42.893Z,102343.94
2023-01-22T16:20:10.983Z,102346.44
2023-01-22T16:22:37.920Z,102339.53
2023-01-22T16:25:06.785Z,102338.69
2023-01-22T16:27:33.372Z,102337.91
2023-01-22T16:30:00.464Z,102317.56
2023-01-22T16:32:28.683Z,102332.09
2023-01-22T16:34:55.433Z,102343.16
2023-01-22T16:37:22.065Z,102332.16
2023-01-22T16:39:48.857Z,102348.56
2023-01-22T16:42:16.679Z,102353.66
2023-01-22T16:44:43.360Z,102279.28
2023-01-22T16:47:09.894Z,102354.56
2023-01-22T16:49:36.693Z,102355.53
2023-01-22T16:52:20.847Z,102358.16
2023-01-22T16:54:49.020Z,102285.59
2023-01-22T16:57:16.863Z,102349.53
2023-01-22T16:59:43.478Z,102357.44
2023-01-22T17:02:13.240Z,102361.75
2023-01-22T17:04:39.922Z,102355.75
2023-01-22T17:07:06.455Z,102354.91
2023-01-22T17:09:33.709Z,102303.63
2023-01-22T17:12:03.024Z,102358.47
2023-01-22T17:14:34.577Z,102356.78
2023-01-22T17:17:01.890Z,102366.41
2023-01-22T17:19:28.617Z,102357.72
2023-01-22T17:21:56.039Z,102354.25
2023-01-22T17:24:22.686Z,102351.75
2023-01-22T17:26:49.813Z,102362.94
2023-01-22T17:29:16.512Z,102367.28
2023-01-22T17:31:45.155Z,102368.16
2023-01-22T17:34:11.973Z,102363.00
2023-01-22T17:36:39.601Z,102368.16
2023-01-22T17:39:06.935Z,102369.00
2023-01-22T17:41:33.733Z,102364.72
2023-01-22T17:44:00.578Z,102365.53
2023-01-22T17:46:30.210Z,102365.59
2023-01-22T17:48:58.896Z,102333.19
2023-01-22T17:51:27.604Z,102370.06
2023-01-22T17:53:55.996Z,102373.63
2023-01-22T17:56:24.527Z,102377.94
2023-01-22T17:58:54.121Z,102373.66
2023-01-22T18:01:23.070Z,102344.75
2023-01-22T18:03:50.891Z,102376.38
2023-01-22T18:06:19.256Z,102361.03
2023-01-22T18:08:45.853Z,102378.06
2023-01-22T18:11:15.885Z,102380.66
2023-01-22T18:13:43.198Z,102391.91
2023-01-22T18:16:13.483Z,102389.31
2023-01-22T18:18:40.985Z,102398.06
2023-01-22T18:21:11.516Z,102400.72
2023-01-22T18:23:39.958Z,102401.59
2023-01-22T18:26:07.818Z,102401.59
2023-01-22T18:28:35.393Z,102401.59
2023-01-22T18:31:06.511Z,102411.97
2023-01-22T18:33:33.218Z,102404.22
2023-01-22T18:35:59.908Z,102410.28
2023-01-22T18:38:26.609Z,102411.16
2023-01-22T18:40:55.077Z,102418.97
2023-01-22T18:43:21.836Z,102422.34
2023-01-22T18:45:48.331Z,102429.31
2023-01-22T18:48:16.011Z,102408.84
2023-01-22T18:50:43.027Z,102433.72
2023-01-22T18:53:09.788Z,102431.19
2023-01-22T18:55:36.538Z,102434.66
2023-01-22T18:58:04.674Z,102422.53
2023-01-22T19:00:31.319Z,102432.97
2023-01-22T19:02:58.303Z,102432.84
2023-01-22T19:05:27.468Z,102429.38
2023-01-22T19:07:54.573Z,102439.81
2023-01-22T19:10:21.114Z,102438.09
2023-01-22T19:12:47.654Z,102443.38
2023-01-22T19:15:15.705Z,102430.63
2023-01-22T19:17:42.232Z,102441.69
2023-01-22T19:20:10.017Z,102443.41
2023-01-22T19:22:36.668Z,102445.22
2023-01-22T19:25:03.330Z,102446.09
2023-01-22T19:27:30.217Z,102445.25
2023-01-22T19:29:56.707Z,102452.09
2023-01-22T19:32:24.688Z,102455.44
2023-01-22T19:34:51.331Z,102451.13
2023-01-22T19:37:17.914Z,102444.25
2023-01-22T19:39:44.466Z,102439.09
2023-01-22T19:42:11.543Z,102417.75
2023-01-22T19:44:38.053Z,102448.69
2023-01-22T19:47:04.703Z,102444.34
2023-01-22T19:49:32.602Z,102447.84
2023-01-22T19:51:59.249Z,102405.97
2023-01-22T19:54:26.622Z,102462.63
2023-01-22T19:56:53.402Z,102460.97
2023-01-22T19:59:22.048Z,102463.59
2023-01-22T20:01:50.174Z,102465.31
2023-01-22T20:04:18.749Z,102445.75
2023-01-22T20:06:47.092Z,102482.69
2023-01-22T20:09:13.811Z,102478.38
2023-01-22T20:11:40.372Z,102485.31
2023-01-22T20:14:06.878Z,102493.09
2023-01-22T20:16:33.637Z,102494.84
2023-01-22T20:19:00.260Z,102493.09
2023-01-22T20:21:27.469Z,102488.78
2023-01-22T20:23:55.321Z,102496.66
2023-01-22T20:26:22.074Z,102501.88
2023-01-22T20:28:49.317Z,102506.22
2023-01-22T20:31:18.623Z,102503.63
2023-01-22T20:33:45.774Z,102506.16
2023-01-22T20:36:13.618Z,102501.81
2023-01-22T20:38:40.226Z,102497.53
2023-01-22T20:41:08.420Z,102501.88
2023-01-22T20:43:35.777Z,102501.81
2023-01-22T20:46:05.691Z,102502.69
2023-01-22T20:48:32.983Z,102508.75
2023-01-22T20:50:59.767Z,102507.97
2023-01-22T20:53:27.580Z,102483.22
2023-01-22T20:55:59.444Z,102520.16
2023-01-22T20:58:27.851Z,102510.78
2023-01-22T21:00:54.904Z,102465.53
2023-01-22T21:03:22.294Z,102516.84
2023-01-22T21:05:48.971Z,102495.44
2023-01-22T21:08:15.526Z,102511.59
2023-01-22T21:10:42.293Z,102505.41
2023-01-22T21:13:09.034Z,102514.91
2023-01-22T21:15:37.140Z,102505.41
2023-01-22T21:18:04.168Z,102507.22
2023-01-22T21:20:30.743Z,102505.47
2023-01-22T21:22:57.418Z,102455.03
2023-01-22T21:25:24.029Z,102516.00
2023-01-22T21:27:51.256Z,102503.00
2023-01-22T21:30:18.270Z,102502.22
2023-01-22T21:32:50.270Z,102505.53
2023-01-22T21:35:17.049Z,102502.88
2023-01-22T21:37:43.791Z,102512.41
2023-01-22T21:40:11.577Z,102504.63
2023-01-22T21:42:38.116Z,102510.69
2023-01-22T21:45:06.659Z,102468.69
2023-01-22T21:47:33.448Z,102510.75
2023-01-22T21:50:01.475Z,102501.25
2023-01-22T21:52:28.258Z,102510.78
2023-01-22T21:54:54.883Z,102368.53
2023-01-22T21:57:21.427Z,102499.56
2023-01-22T21:59:48.068Z,102497.81
2023-01-22T22:02:17.100Z,102502.16
2023-01-22T22:04:43.926Z,102503.91
2023-01-22T22:07:12.638Z,102498.66
2023-01-22T22:09:39.306Z,102453.28
2023-01-22T22:12:06.491Z,102494.38
2023-01-22T22:14:33.132Z,102498.56
2023-01-22T22:16:59.942Z,102504.75
2023-01-22T22:19:26.826Z,102483.34
2023-01-22T22:21:53.359Z,102503.88
2023-01-22T22:24:21.775Z,102442.22
2023-01-22T22:26:48.338Z,102497.03
2023-01-22T22:29:15.457Z,102506.56
2023-01-22T22:31:42.242Z,102505.63
2023-01-22T22:34:08.881Z,102505.72
2023-01-22T22:36:35.711Z,102509.16
2023-01-22T22:39:03.403Z,102455.94
2023-01-22T22:41:33.215Z,102495.47
2023-01-22T22:43:59.884Z,102511.78
2023-01-22T22:46:27.986Z,102515.22
2023-01-22T22:48:56.711Z,102518.75
2023-01-22T22:51:25.154Z,102521.34
2023-01-22T22:53:54.148Z,102400.50
2023-01-22T22:56:21.207Z,102531.00
2023-01-22T22:58:49.379Z,102516.28
2023-01-22T23:01:17.946Z,102516.34
2023-01-22T23:03:45.033Z,102524.91
2023-01-22T23:06:13.736Z,102518.00
2023-01-22T23:08:42.361Z,102529.13
2023-01-22T23:11:12.955Z,102531.75
2023-01-22T23:13:43.133Z,102536.16
2023-01-22T23:16:14.609Z,102496.78
2023-01-22T23:18:41.277Z,102538.81
2023-01-22T23:21:10.737Z,102530.25
2023-01-22T23:23:38.172Z,102504.56
2023-01-22T23:26:08.350Z,102541.31
2023-01-22T23:28:35.040Z,102524.97
2023-01-22T23:31:04.488Z,102503.59
2023-01-22T23:33:32.689Z,102546.50
2023-01-22T23:36:00.072Z,102549.13
2023-01-22T23:38:26.731Z,102547.38
2023-01-22T23:40:56.398Z,102537.94
2023-01-22T23:43:23.062Z,102543.91
2023-01-22T23:45:49.825Z,102434.94
2023-01-22T23:48:19.317Z,102543.06
2023-01-22T23:50:48.686Z,102536.09
2023-01-22T23:53:16.875Z,102492.31
2023-01-22T23:55:44.040Z,102539.47
2023-01-22T23:58:10.661Z,102530.13
